createdAt,value
2022-11-26T00:02:22.480Z,4.60
2022-11-26T00:07:27.619Z,4.60
2022-11-26T00:12:33.853Z,4.50
2022-11-26T00:17:36.433Z,4.50
2022-11-26T00:22:49.883Z,4.50
2022-11-26T00:27:55.954Z,4.50
2022-11-26T00:32:58.693Z,4.40
2022-11-26T00:38:01.310Z,4.40
2022-11-26T00:43:03.912Z,4.40
2022-11-26T00:48:06.937Z,4.30
2022-11-26T00:53:14.504Z,4.20
2022-11-26T00:58:26.645Z,4.20
2022-11-26T01:03:29.846Z,4.20
2022-11-26T01:08:36.283Z,4.30
2022-11-26T01:13:38.914Z,4.30
2022-11-26T01:18:41.555Z,4.30
2022-11-26T01:23:44.583Z,4.20
2022-11-26T01:28:48.063Z,4.30
2022-11-26T01:33:50.891Z,4.40
2022-11-26T01:39:01.705Z,4.60
2022-11-26T01:44:06.364Z,4.70
2022-11-26T01:49:32.923Z,4.70
2022-11-26T01:54:38.889Z,4.60
2022-11-26T01:59:44.898Z,4.70
2022-11-26T02:05:05.744Z,4.70
2022-11-26T02:10:09.847Z,4.80
2022-11-26T02:15:13.296Z,4.80
2022-11-26T02:20:49.173Z,4.80
2022-11-26T02:25:57.644Z,4.80
2022-11-26T02:31:12.160Z,4.90
2022-11-26T02:36:33.715Z,4.80
2022-11-26T02:41:45.344Z,4.90
2022-11-26T02:46:51.925Z,4.90
2022-11-26T02:51:58.696Z,4.80
2022-11-26T02:57:03.904Z,4.80
2022-11-26T03:02:20.418Z,4.60
2022-11-26T03:07:23.827Z,4.70
2022-11-26T03:12:28.508Z,4.60
2022-11-26T03:17:31.113Z,4.60
2022-11-26T03:22:33.954Z,4.60
2022-11-26T03:27:36.888Z,4.60
2022-11-26T03:32:39.465Z,4.50
2022-11-26T03:37:42.171Z,4.60
2022-11-26T03:42:45.330Z,4.60
2022-11-26T03:47:47.859Z,4.60
2022-11-26T03:52:50.466Z,4.50
2022-11-26T03:57:53.144Z,4.50
2022-11-26T04:02:55.847Z,4.50
2022-11-26T04:07:58.415Z,4.40
2022-11-26T04:13:01.271Z,4.40
2022-11-26T04:18:03.982Z,4.20
2022-11-26T04:23:06.667Z,4.00
2022-11-26T04:28:09.708Z,3.80
2022-11-26T04:33:12.345Z,3.60
2022-11-26T04:38:14.946Z,3.50
2022-11-26T04:43:17.574Z,3.30
2022-11-26T04:48:20.494Z,3.20
2022-11-26T04:53:23.504Z,3.10
2022-11-26T04:58:26.105Z,2.90
2022-11-26T05:03:28.724Z,2.70
2022-11-26T05:08:31.274Z,2.80
2022-11-26T05:13:34.023Z,2.60
2022-11-26T05:18:36.740Z,2.60
2022-11-26T05:23:39.369Z,2.40
2022-11-26T05:28:42.007Z,2.30
2022-11-26T05:33:44.618Z,2.30
2022-11-26T05:38:47.196Z,2.20
2022-11-26T05:43:49.845Z,2.10
2022-11-26T05:48:52.418Z,2.00
2022-11-26T05:53:55.000Z,1.90
2022-11-26T05:58:57.551Z,1.90
2022-11-26T06:04:00.121Z,1.80
2022-11-26T06:09:04.224Z,1.80
2022-11-26T06:14:07.035Z,1.80
2022-11-26T06:19:10.930Z,1.90
2022-11-26T06:24:13.564Z,1.90
2022-11-26T06:29:17.150Z,2.00
2022-11-26T06:34:19.747Z,2.00
2022-11-26T06:39:22.323Z,2.20
2022-11-26T06:44:24.990Z,2.40
2022-11-26T06:49:27.625Z,2.30
2022-11-26T06:54:30.876Z,2.40
2022-11-26T06:59:33.518Z,2.50
2022-11-26T07:04:36.135Z,2.90
2022-11-26T07:09:40.104Z,3.30
2022-11-26T07:14:43.807Z,3.60
2022-11-26T07:19:46.453Z,3.90
2022-11-26T07:24:49.111Z,3.80
2022-11-26T07:29:52.153Z,3.50
2022-11-26T07:34:54.792Z,3.50
2022-11-26T07:39:57.389Z,3.50
2022-11-26T07:45:00.037Z,3.70
2022-11-26T07:50:03.347Z,4.00
2022-11-26T07:55:11.030Z,4.30
2022-11-26T08:00:15.626Z,4.50
2022-11-26T08:05:18.414Z,4.60
2022-11-26T08:10:21.140Z,4.80
2022-11-26T08:15:24.114Z,5.10
2022-11-26T08:20:29.039Z,5.30
2022-11-26T08:25:32.173Z,5.30
2022-11-26T08:30:34.898Z,5.50
2022-11-26T08:36:04.975Z,5.80
2022-11-26T08:41:02.331Z,6.20
2022-11-26T08:46:06.207Z,6.60
2022-11-26T08:51:11.843Z,6.90
2022-11-26T08:56:14.553Z,6.60
2022-11-26T09:01:22.404Z,6.50
2022-11-26T09:06:28.533Z,6.40
2022-11-26T09:11:32.322Z,6.40
2022-11-26T09:16:35.302Z,6.50
2022-11-26T09:21:38.213Z,6.60
2022-11-26T09:26:41.127Z,6.70
2022-11-26T09:32:15.350Z,6.60
2022-11-26T09:37:08.214Z,6.50
2022-11-26T09:42:25.675Z,6.70
2022-11-26T09:47:33.722Z,6.80
2022-11-26T09:53:05.572Z,6.80
2022-11-26T09:58:32.173Z,6.70
2022-11-26T10:03:37.456Z,6.60
2022-11-26T10:09:17.617Z,6.80
2022-11-26T10:14:37.864Z,6.70
2022-11-26T10:19:52.593Z,6.70
2022-11-26T10:24:59.764Z,6.60
2022-11-26T10:30:21.772Z,6.60
2022-11-26T10:35:27.796Z,6.60
2022-11-26T10:40:32.734Z,6.60
2022-11-26T10:45:46.014Z,6.60
2022-11-26T10:51:23.834Z,6.70
2022-11-26T10:56:31.905Z,6.80
2022-11-26T11:01:39.237Z,6.80
2022-11-26T11:06:44.966Z,6.80
2022-11-26T11:11:47.732Z,6.80
2022-11-26T11:16:50.818Z,6.90
2022-11-26T11:21:54.014Z,6.90
2022-11-26T11:27:00.395Z,7.00
2022-11-26T11:32:05.867Z,7.00
2022-11-26T11:37:21.355Z,7.00
2022-11-26T11:42:32.565Z,7.00
2022-11-26T11:47:44.474Z,7.00
2022-11-26T11:52:59.138Z,7.10
2022-11-26T11:58:46.134Z,7.10
2022-11-26T12:04:26.804Z,7.10
2022-11-26T12:09:40.516Z,7.10
2022-11-26T12:14:48.112Z,7.20
2022-11-26T12:19:50.676Z,7.10
2022-11-26T12:25:22.455Z,7.20
2022-11-26T12:30:35.854Z,7.20
2022-11-26T12:35:50.902Z,7.20
2022-11-26T12:41:01.889Z,7.20
2022-11-26T12:46:35.010Z,7.20
2022-11-26T12:51:50.524Z,7.20
2022-11-26T12:57:14.961Z,7.20
2022-11-26T13:02:25.251Z,7.30
2022-11-26T13:08:01.368Z,7.30
2022-11-26T13:13:41.914Z,7.20
2022-11-26T13:18:53.540Z,7.30
2022-11-26T13:24:17.518Z,7.30
2022-11-26T13:29:41.545Z,7.20
2022-11-26T13:35:21.154Z,7.20
2022-11-26T13:40:56.032Z,7.10
2022-11-26T13:46:20.465Z,7.10
2022-11-26T13:51:34.533Z,7.00
2022-11-26T13:56:38.726Z,7.00
2022-11-26T14:01:42.717Z,7.00
2022-11-26T14:07:04.192Z,6.90
2022-11-26T14:12:06.953Z,6.90
2022-11-26T14:17:17.038Z,6.90
2022-11-26T14:22:22.833Z,6.90
2022-11-26T14:27:33.977Z,6.90
2022-11-26T14:33:00.662Z,6.90
2022-11-26T14:38:07.082Z,6.90
2022-11-26T14:43:20.361Z,6.90
2022-11-26T14:48:28.823Z,6.90
2022-11-26T14:53:33.515Z,6.90
2022-11-26T14:59:02.048Z,6.90
2022-11-26T15:04:07.207Z,6.90
2022-11-26T15:09:17.023Z,6.90
2022-11-26T15:14:40.363Z,6.90
2022-11-26T15:19:44.024Z,6.90
2022-11-26T15:24:53.195Z,6.90
2022-11-26T15:29:55.876Z,6.90
2022-11-26T15:35:02.054Z,6.90
2022-11-26T15:40:21.900Z,6.90
2022-11-26T15:45:34.777Z,6.90
2022-11-26T15:50:38.715Z,6.90
2022-11-26T15:55:46.993Z,6.90
2022-11-26T16:00:56.127Z,6.90
2022-11-26T16:05:58.874Z,6.90
2022-11-26T16:11:04.577Z,6.90
2022-11-26T16:16:10.585Z,6.90
2022-11-26T16:21:18.395Z,7.00
2022-11-26T16:26:21.094Z,7.00
2022-11-26T16:31:24.130Z,7.00
2022-11-26T16:36:32.450Z,7.00
2022-11-26T16:41:35.105Z,7.00
2022-11-26T16:46:38.748Z,7.00
2022-11-26T16:51:41.495Z,7.00
2022-11-26T16:56:44.386Z,7.00
2022-11-26T17:01:47.268Z,7.00
2022-11-26T17:06:50.187Z,6.90
2022-11-26T17:11:52.962Z,6.90
2022-11-26T17:16:56.817Z,6.90
2022-11-26T17:21:59.514Z,6.90
2022-11-26T17:27:04.576Z,6.90
2022-11-26T17:32:09.384Z,6.90
2022-11-26T17:37:28.462Z,6.90
2022-11-26T17:42:36.333Z,6.90
2022-11-26T17:47:39.738Z,6.90
2022-11-26T17:52:42.440Z,6.90
2022-11-26T17:57:45.392Z,6.90
2022-11-26T18:02:48.084Z,6.80
2022-11-26T18:07:51.345Z,6.80
2022-11-26T18:12:55.793Z,6.80
2022-11-26T18:17:58.558Z,6.80
2022-11-26T18:23:02.006Z,6.70
2022-11-26T18:28:04.796Z,6.70
2022-11-26T18:33:07.506Z,6.70
2022-11-26T18:38:11.716Z,6.70
2022-11-26T18:43:14.438Z,6.60
2022-11-26T18:48:17.176Z,6.60
2022-11-26T18:53:19.879Z,6.50
2022-11-26T18:58:24.070Z,6.50
2022-11-26T19:03:27.811Z,6.50
2022-11-26T19:08:32.287Z,6.40
2022-11-26T19:13:35.437Z,6.40
2022-11-26T19:18:38.126Z,6.30
2022-11-26T19:23:40.788Z,6.20
2022-11-26T19:28:44.389Z,6.20
2022-11-26T19:33:48.317Z,6.10
2022-11-26T19:38:56.378Z,6.10
2022-11-26T19:44:00.854Z,6.00
2022-11-26T19:49:03.679Z,5.90
2022-11-26T19:54:07.087Z,5.90
2022-11-26T19:59:10.107Z,5.90
2022-11-26T20:04:16.220Z,5.90
2022-11-26T20:09:18.926Z,5.90
2022-11-26T20:14:21.688Z,5.80
2022-11-26T20:19:24.408Z,5.80
2022-11-26T20:24:27.159Z,5.80
2022-11-26T20:29:29.929Z,5.70
2022-11-26T20:34:33.887Z,5.70
2022-11-26T20:39:36.809Z,5.70
2022-11-26T20:44:40.539Z,5.60
2022-11-26T20:49:43.515Z,5.60
2022-11-26T20:54:50.795Z,5.50
2022-11-26T20:59:56.468Z,5.50
2022-11-26T21:05:00.916Z,5.50
2022-11-26T21:10:04.146Z,5.50
2022-11-26T21:15:07.802Z,5.40
2022-11-26T21:20:10.977Z,5.40
2022-11-26T21:25:13.767Z,5.40
2022-11-26T21:30:16.678Z,5.40
2022-11-26T21:35:19.407Z,5.40
2022-11-26T21:40:22.278Z,5.30
2022-11-26T21:45:27.906Z,5.30
2022-11-26T21:50:31.436Z,5.30
2022-11-26T21:55:34.099Z,5.30
2022-11-26T22:00:37.535Z,5.30
2022-11-26T22:05:41.991Z,5.20
2022-11-26T22:10:44.719Z,5.20
2022-11-26T22:15:47.420Z,5.10
2022-11-26T22:20:51.857Z,5.10
2022-11-26T22:25:54.562Z,5.10
2022-11-26T22:30:57.441Z,5.10
2022-11-26T22:36:01.679Z,5.10
2022-11-26T22:41:06.170Z,5.00
2022-11-26T22:46:17.949Z,5.00
2022-11-26T22:51:21.948Z,5.00
2022-11-26T22:56:25.201Z,5.00
2022-11-26T23:01:30.584Z,4.80
2022-11-26T23:06:34.752Z,4.90
2022-11-26T23:11:39.850Z,4.80
2022-11-26T23:16:43.406Z,4.70
2022-11-26T23:21:47.113Z,4.70
2022-11-26T23:26:49.774Z,4.60
2022-11-26T23:31:52.553Z,4.60
2022-11-26T23:36:55.230Z,4.60
2022-11-26T23:41:57.808Z,4.50
2022-11-26T23:47:00.450Z,4.60
2022-11-26T23:52:03.052Z,4.50
2022-11-26T23:57:09.186Z,4.50
